sensor_id;sensor_type;location;lat;lon;timestamp;P1;durP1;ratioP1;P2;durP2;ratioP2
20065;SDS011;10193;48.884;9.182;2023-01-16T00:01:14;1.67;;;0.80;;
20065;SDS011;10193;48.884;9.182;2023-01-16T00:03:42;1.20;;;0.57;;
20065;SDS011;10193;48.884;9.182;2023-01-16T00:06:09;1.93;;;0.63;;
20065;SDS011;10193;48.884;9.182;2023-01-16T00:08:36;1.10;;;0.70;;
20065;SDS011;10193;48.884;9.182;2023-01-16T00:11:03;0.80;;;0.67;;
20065;SDS011;10193;48.884;9.182;2023-01-16T00:13:30;0.80;;;0.80;;
20065;SDS011;10193;48.884;9.182;2023-01-16T00:15:56;1.57;;;0.57;;
20065;SDS011;10193;48.884;9.182;2023-01-16T00:18:23;1.47;;;0.67;;
20065;SDS011;10193;48.884;9.182;2023-01-16T00:20:51;1.13;;;0.77;;
20065;SDS011;10193;48.884;9.182;2023-01-16T00:23:18;1.83;;;0.67;;
20065;SDS011;10193;48.884;9.182;2023-01-16T00:25:44;2.07;;;0.60;;
20065;SDS011;10193;48.884;9.182;2023-01-16T00:28:11;0.87;;;0.60;;
20065;SDS011;10193;48.884;9.182;2023-01-16T00:30:39;2.17;;;0.90;;
20065;SDS011;10193;48.884;9.182;2023-01-16T00:33:06;1.10;;;0.57;;
20065;SDS011;10193;48.884;9.182;2023-01-16T00:35:34;0.93;;;0.50;;
20065;SDS011;10193;48.884;9.182;2023-01-16T00:38:02;1.27;;;0.50;;
20065;SDS011;10193;48.884;9.182;2023-01-16T00:40:29;2.87;;;0.60;;
20065;SDS011;10193;48.884;9.182;2023-01-16T00:42:55;2.00;;;0.90;;
20065;SDS011;10193;48.884;9.182;2023-01-16T00:45:22;1.93;;;0.50;;
20065;SDS011;10193;48.884;9.182;2023-01-16T00:47:49;3.03;;;0.73;;
20065;SDS011;10193;48.884;9.182;2023-01-16T00:50:15;1.70;;;0.50;;
20065;SDS011;10193;48.884;9.182;2023-01-16T00:52:42;0.83;;;0.50;;
20065;SDS011;10193;48.884;9.182;2023-01-16T00:55:10;0.83;;;0.50;;
20065;SDS011;10193;48.884;9.182;2023-01-16T00:57:37;0.63;;;0.50;;
20065;SDS011;10193;48.884;9.182;2023-01-16T01:00:04;0.97;;;0.60;;
20065;SDS011;10193;48.884;9.182;2023-01-16T01:02:31;1.57;;;0.70;;
20065;SDS011;10193;48.884;9.182;2023-01-16T01:04:58;1.57;;;0.70;;
20065;SDS011;10193;48.884;9.182;2023-01-16T01:07:25;1.23;;;0.57;;
20065;SDS011;10193;48.884;9.182;2023-01-16T01:09:51;0.60;;;0.40;;
20065;SDS011;10193;48.884;9.182;2023-01-16T01:12:19;0.50;;;0.50;;
20065;SDS011;10193;48.884;9.182;2023-01-16T01:14:46;1.23;;;0.50;;
20065;SDS011;10193;48.884;9.182;2023-01-16T01:17:13;1.07;;;0.67;;
20065;SDS011;10193;48.884;9.182;2023-01-16T01:19:39;1.37;;;0.50;;
20065;SDS011;10193;48.884;9.182;2023-01-16T01:22:06;1.90;;;0.50;;
20065;SDS011;10193;48.884;9.182;2023-01-16T01:24:33;1.50;;;0.40;;
20065;SDS011;10193;48.884;9.182;2023-01-16T01:26:59;0.83;;;0.60;;
20065;SDS011;10193;48.884;9.182;2023-01-16T01:29:27;0.50;;;0.30;;
20065;SDS011;10193;48.884;9.182;2023-01-16T01:31:54;2.03;;;0.47;;
20065;SDS011;10193;48.884;9.182;2023-01-16T01:34:21;0.90;;;0.50;;
20065;SDS011;10193;48.884;9.182;2023-01-16T01:36:47;0.60;;;0.40;;
20065;SDS011;10193;48.884;9.182;2023-01-16T01:39:14;0.50;;;0.40;;
20065;SDS011;10193;48.884;9.182;2023-01-16T01:41:41;0.50;;;0.40;;
20065;SDS011;10193;48.884;9.182;2023-01-16T01:47:13;1.00;;;0.40;;
20065;SDS011;10193;48.884;9.182;2023-01-16T01:49:41;0.73;;;0.40;;
20065;SDS011;10193;48.884;9.182;2023-01-16T01:52:08;1.43;;;0.70;;
20065;SDS011;10193;48.884;9.182;2023-01-16T01:54:37;0.90;;;0.43;;
20065;SDS011;10193;48.884;9.182;2023-01-16T01:57:08;0.60;;;0.40;;
20065;SDS011;10193;48.884;9.182;2023-01-16T01:59:40;2.30;;;0.50;;
20065;SDS011;10193;48.884;9.182;2023-01-16T02:02:10;1.43;;;0.73;;
20065;SDS011;10193;48.884;9.182;2023-01-16T02:04:42;2.10;;;0.70;;
20065;SDS011;10193;48.884;9.182;2023-01-16T02:07:10;0.87;;;0.63;;
20065;SDS011;10193;48.884;9.182;2023-01-16T02:09:40;0.60;;;0.50;;
20065;SDS011;10193;48.884;9.182;2023-01-16T02:12:07;1.17;;;0.60;;
20065;SDS011;10193;48.884;9.182;2023-01-16T02:14:36;1.10;;;0.70;;
20065;SDS011;10193;48.884;9.182;2023-01-16T02:17:04;4.07;;;0.60;;
20065;SDS011;10193;48.884;9.182;2023-01-16T02:19:52;1.23;;;0.60;;
20065;SDS011;10193;48.884;9.182;2023-01-16T02:22:45;1.10;;;0.57;;
20065;SDS011;10193;48.884;9.182;2023-01-16T02:25:38;1.90;;;0.80;;
20065;SDS011;10193;48.884;9.182;2023-01-16T02:31:40;1.37;;;0.60;;
20065;SDS011;10193;48.884;9.182;2023-01-16T02:34:19;1.03;;;0.37;;
20065;SDS011;10193;48.884;9.182;2023-01-16T02:37:01;2.40;;;0.60;;
20065;SDS011;10193;48.884;9.182;2023-01-16T02:39:36;1.33;;;0.63;;
20065;SDS011;10193;48.884;9.182;2023-01-16T02:42:10;1.63;;;0.57;;
20065;SDS011;10193;48.884;9.182;2023-01-16T02:44:47;0.60;;;0.37;;
20065;SDS011;10193;48.884;9.182;2023-01-16T02:47:24;1.03;;;0.50;;
20065;SDS011;10193;48.884;9.182;2023-01-16T02:49:55;0.70;;;0.50;;
20065;SDS011;10193;48.884;9.182;2023-01-16T02:52:30;1.33;;;0.30;;
20065;SDS011;10193;48.884;9.182;2023-01-16T02:55:03;0.53;;;0.30;;
20065;SDS011;10193;48.884;9.182;2023-01-16T02:57:34;1.60;;;0.50;;
20065;SDS011;10193;48.884;9.182;2023-01-16T03:00:04;0.77;;;0.37;;
20065;SDS011;10193;48.884;9.182;2023-01-16T03:02:33;0.47;;;0.40;;
20065;SDS011;10193;48.884;9.182;2023-01-16T03:05:00;0.60;;;0.37;;
20065;SDS011;10193;48.884;9.182;2023-01-16T03:10:35;1.50;;;0.57;;
20065;SDS011;10193;48.884;9.182;2023-01-16T03:13:12;1.20;;;0.40;;
20065;SDS011;10193;48.884;9.182;2023-01-16T03:15:44;0.63;;;0.50;;
20065;SDS011;10193;48.884;9.182;2023-01-16T03:18:28;0.90;;;0.70;;
20065;SDS011;10193;48.884;9.182;2023-01-16T03:21:00;0.80;;;0.47;;
20065;SDS011;10193;48.884;9.182;2023-01-16T03:23:34;1.37;;;0.40;;
20065;SDS011;10193;48.884;9.182;2023-01-16T03:26:09;0.60;;;0.30;;
20065;SDS011;10193;48.884;9.182;2023-01-16T03:28:41;1.07;;;0.50;;
20065;SDS011;10193;48.884;9.182;2023-01-16T03:31:18;0.60;;;0.43;;
20065;SDS011;10193;48.884;9.182;2023-01-16T03:33:54;2.73;;;0.90;;
20065;SDS011;10193;48.884;9.182;2023-01-16T03:36:29;2.63;;;0.70;;
20065;SDS011;10193;48.884;9.182;2023-01-16T03:39:00;1.97;;;0.70;;
20065;SDS011;10193;48.884;9.182;2023-01-16T03:41:30;1.07;;;0.40;;
20065;SDS011;10193;48.884;9.182;2023-01-16T03:43:59;1.67;;;0.50;;
20065;SDS011;10193;48.884;9.182;2023-01-16T03:46:31;1.40;;;0.73;;
20065;SDS011;10193;48.884;9.182;2023-01-16T03:49:04;0.40;;;0.40;;
20065;SDS011;10193;48.884;9.182;2023-01-16T03:51:33;0.90;;;0.47;;
20065;SDS011;10193;48.884;9.182;2023-01-16T03:54:06;1.57;;;0.40;;
20065;SDS011;10193;48.884;9.182;2023-01-16T03:56:43;1.87;;;0.53;;
20065;SDS011;10193;48.884;9.182;2023-01-16T03:59:16;1.63;;;0.60;;
20065;SDS011;10193;48.884;9.182;2023-01-16T04:01:44;1.30;;;0.40;;
20065;SDS011;10193;48.884;9.182;2023-01-16T04:04:18;0.70;;;0.50;;
20065;SDS011;10193;48.884;9.182;2023-01-16T04:06:51;1.27;;;0.53;;
20065;SDS011;10193;48.884;9.182;2023-01-16T04:09:21;0.57;;;0.40;;
20065;SDS011;10193;48.884;9.182;2023-01-16T04:11:53;1.13;;;0.50;;
20065;SDS011;10193;48.884;9.182;2023-01-16T04:14:22;0.50;;;0.50;;
20065;SDS011;10193;48.884;9.182;2023-01-16T04:16:50;1.63;;;0.50;;
20065;SDS011;10193;48.884;9.182;2023-01-16T04:19:19;1.37;;;0.50;;
20065;SDS011;10193;48.884;9.182;2023-01-16T04:21:48;0.87;;;0.50;;
20065;SDS011;10193;48.884;9.182;2023-01-16T04:24:14;0.80;;;0.67;;
20065;SDS011;10193;48.884;9.182;2023-01-16T04:26:42;1.40;;;0.50;;
20065;SDS011;10193;48.884;9.182;2023-01-16T04:29:09;1.90;;;0.67;;
20065;SDS011;10193;48.884;9.182;2023-01-16T04:31:35;1.00;;;0.53;;
20065;SDS011;10193;48.884;9.182;2023-01-16T04:34:02;1.33;;;0.93;;
20065;SDS011;10193;48.884;9.182;2023-01-16T04:36:30;1.23;;;0.73;;
20065;SDS011;10193;48.884;9.182;2023-01-16T04:38:57;1.60;;;0.63;;
20065;SDS011;10193;48.884;9.182;2023-01-16T04:41:23;1.37;;;0.50;;
20065;SDS011;10193;48.884;9.182;2023-01-16T04:44:02;1.03;;;0.60;;
20065;SDS011;10193;48.884;9.182;2023-01-16T04:46:30;1.17;;;0.70;;
20065;SDS011;10193;48.884;9.182;2023-01-16T04:48:58;0.50;;;0.43;;
20065;SDS011;10193;48.884;9.182;2023-01-16T04:51:24;2.33;;;0.70;;
20065;SDS011;10193;48.884;9.182;2023-01-16T04:53:52;1.53;;;0.60;;
20065;SDS011;10193;48.884;9.182;2023-01-16T04:56:19;1.47;;;0.63;;
20065;SDS011;10193;48.884;9.182;2023-01-16T04:58:46;1.07;;;0.77;;
20065;SDS011;10193;48.884;9.182;2023-01-16T05:01:12;2.37;;;0.63;;
20065;SDS011;10193;48.884;9.182;2023-01-16T05:03:39;0.50;;;0.50;;
20065;SDS011;10193;48.884;9.182;2023-01-16T05:06:05;2.73;;;0.60;;
20065;SDS011;10193;48.884;9.182;2023-01-16T05:08:32;0.40;;;0.40;;
20065;SDS011;10193;48.884;9.182;2023-01-16T05:11:00;0.60;;;0.60;;
20065;SDS011;10193;48.884;9.182;2023-01-16T05:13:27;1.50;;;0.60;;
20065;SDS011;10193;48.884;9.182;2023-01-16T05:15:54;0.57;;;0.57;;
20065;SDS011;10193;48.884;9.182;2023-01-16T05:18:21;1.03;;;0.70;;
20065;SDS011;10193;48.884;9.182;2023-01-16T05:20:48;1.20;;;0.50;;
20065;SDS011;10193;48.884;9.182;2023-01-16T05:23:15;0.70;;;0.60;;
20065;SDS011;10193;48.884;9.182;2023-01-16T05:25:42;1.33;;;0.60;;
20065;SDS011;10193;48.884;9.182;2023-01-16T05:28:10;2.17;;;1.00;;
20065;SDS011;10193;48.884;9.182;2023-01-16T05:30:37;2.30;;;1.43;;
20065;SDS011;10193;48.884;9.182;2023-01-16T05:33:04;0.97;;;0.87;;
20065;SDS011;10193;48.884;9.182;2023-01-16T05:35:31;0.80;;;0.63;;
20065;SDS011;10193;48.884;9.182;2023-01-16T05:37:58;0.60;;;0.53;;
20065;SDS011;10193;48.884;9.182;2023-01-16T05:40:24;0.60;;;0.50;;
20065;SDS011;10193;48.884;9.182;2023-01-16T05:42:51;0.97;;;0.53;;
20065;SDS011;10193;48.884;9.182;2023-01-16T05:45:19;1.30;;;0.50;;
20065;SDS011;10193;48.884;9.182;2023-01-16T05:47:46;1.20;;;0.60;;
20065;SDS011;10193;48.884;9.182;2023-01-16T05:50:12;0.83;;;0.53;;
20065;SDS011;10193;48.884;9.182;2023-01-16T05:52:39;2.70;;;0.70;;
20065;SDS011;10193;48.884;9.182;2023-01-16T05:55:06;1.30;;;0.50;;
20065;SDS011;10193;48.884;9.182;2023-01-16T05:57:33;0.73;;;0.47;;
20065;SDS011;10193;48.884;9.182;2023-01-16T06:00:00;0.93;;;0.63;;
20065;SDS011;10193;48.884;9.182;2023-01-16T06:02:28;0.60;;;0.60;;
20065;SDS011;10193;48.884;9.182;2023-01-16T06:04:55;0.47;;;0.47;;
20065;SDS011;10193;48.884;9.182;2023-01-16T06:07:21;0.73;;;0.50;;
20065;SDS011;10193;48.884;9.182;2023-01-16T06:09:48;0.90;;;0.43;;
20065;SDS011;10193;48.884;9.182;2023-01-16T06:12:15;1.30;;;0.50;;
20065;SDS011;10193;48.884;9.182;2023-01-16T06:14:43;0.73;;;0.57;;
20065;SDS011;10193;48.884;9.182;2023-01-16T06:17:10;1.03;;;0.40;;
20065;SDS011;10193;48.884;9.182;2023-01-16T06:19:40;1.10;;;0.50;;
20065;SDS011;10193;48.884;9.182;2023-01-16T06:22:07;0.67;;;0.67;;
20065;SDS011;10193;48.884;9.182;2023-01-16T06:24:33;1.30;;;0.93;;
20065;SDS011;10193;48.884;9.182;2023-01-16T06:27:00;0.93;;;0.83;;
20065;SDS011;10193;48.884;9.182;2023-01-16T06:29:27;0.90;;;0.60;;
20065;SDS011;10193;48.884;9.182;2023-01-16T06:31:53;2.27;;;0.80;;
20065;SDS011;10193;48.884;9.182;2023-01-16T06:34:20;1.50;;;0.70;;
20065;SDS011;10193;48.884;9.182;2023-01-16T06:36:48;1.93;;;0.70;;
20065;SDS011;10193;48.884;9.182;2023-01-16T06:39:15;0.80;;;0.60;;
20065;SDS011;10193;48.884;9.182;2023-01-16T06:41:42;0.80;;;0.80;;
20065;SDS011;10193;48.884;9.182;2023-01-16T06:44:09;2.17;;;0.67;;
20065;SDS011;10193;48.884;9.182;2023-01-16T06:46:35;1.53;;;0.70;;
20065;SDS011;10193;48.884;9.182;2023-01-16T06:49:02;1.87;;;1.00;;
20065;SDS011;10193;48.884;9.182;2023-01-16T06:51:29;2.07;;;0.97;;
20065;SDS011;10193;48.884;9.182;2023-01-16T06:53:57;1.60;;;0.90;;
20065;SDS011;10193;48.884;9.182;2023-01-16T06:56:24;2.23;;;1.10;;
20065;SDS011;10193;48.884;9.182;2023-01-16T06:58:51;0.67;;;0.67;;
20065;SDS011;10193;48.884;9.182;2023-01-16T07:01:18;1.10;;;0.67;;
20065;SDS011;10193;48.884;9.182;2023-01-16T07:03:45;1.27;;;0.73;;
20065;SDS011;10193;48.884;9.182;2023-01-16T07:06:11;0.77;;;0.60;;
20065;SDS011;10193;48.884;9.182;2023-01-16T07:08:38;1.10;;;0.80;;
20065;SDS011;10193;48.884;9.182;2023-01-16T07:11:06;1.33;;;0.73;;
20065;SDS011;10193;48.884;9.182;2023-01-16T07:13:33;1.10;;;0.80;;
20065;SDS011;10193;48.884;9.182;2023-01-16T07:16:00;1.10;;;0.80;;
20065;SDS011;10193;48.884;9.182;2023-01-16T07:18:44;0.87;;;0.80;;
20065;SDS011;10193;48.884;9.182;2023-01-16T07:21:29;1.07;;;0.70;;
20065;SDS011;10193;48.884;9.182;2023-01-16T07:24:14;0.73;;;0.73;;
20065;SDS011;10193;48.884;9.182;2023-01-16T07:26:47;1.17;;;1.07;;
20065;SDS011;10193;48.884;9.182;2023-01-16T07:29:17;2.63;;;0.80;;
20065;SDS011;10193;48.884;9.182;2023-01-16T07:31:44;0.93;;;0.80;;
20065;SDS011;10193;48.884;9.182;2023-01-16T07:34:10;1.33;;;0.80;;
20065;SDS011;10193;48.884;9.182;2023-01-16T07:36:37;0.77;;;0.73;;
20065;SDS011;10193;48.884;9.182;2023-01-16T07:39:03;1.20;;;0.90;;
20065;SDS011;10193;48.884;9.182;2023-01-16T07:41:30;1.73;;;0.83;;
20065;SDS011;10193;48.884;9.182;2023-01-16T07:43:58;1.47;;;0.90;;
20065;SDS011;10193;48.884;9.182;2023-01-16T07:46:25;1.40;;;0.80;;
20065;SDS011;10193;48.884;9.182;2023-01-16T07:48:51;0.70;;;0.70;;
20065;SDS011;10193;48.884;9.182;2023-01-16T07:51:20;0.60;;;0.60;;
20065;SDS011;10193;48.884;9.182;2023-01-16T07:53:47;0.50;;;0.50;;
20065;SDS011;10193;48.884;9.182;2023-01-16T07:56:13;0.70;;;0.70;;
20065;SDS011;10193;48.884;9.182;2023-01-16T07:58:40;1.70;;;0.90;;
20065;SDS011;10193;48.884;9.182;2023-01-16T08:01:09;0.93;;;0.83;;
20065;SDS011;10193;48.884;9.182;2023-01-16T08:03:36;1.97;;;1.10;;
20065;SDS011;10193;48.884;9.182;2023-01-16T08:06:03;1.60;;;1.00;;
20065;SDS011;10193;48.884;9.182;2023-01-16T08:08:31;2.60;;;1.10;;
20065;SDS011;10193;48.884;9.182;2023-01-16T08:10:58;0.73;;;0.73;;
20065;SDS011;10193;48.884;9.182;2023-01-16T08:13:47;0.87;;;0.80;;
20065;SDS011;10193;48.884;9.182;2023-01-16T08:16:15;1.50;;;0.93;;
20065;SDS011;10193;48.884;9.182;2023-01-16T08:18:41;0.80;;;0.80;;
20065;SDS011;10193;48.884;9.182;2023-01-16T08:21:08;1.10;;;1.00;;
20065;SDS011;10193;48.884;9.182;2023-01-16T08:23:35;1.33;;;0.70;;
20065;SDS011;10193;48.884;9.182;2023-01-16T08:26:04;0.83;;;0.83;;
20065;SDS011;10193;48.884;9.182;2023-01-16T08:28:30;1.03;;;0.80;;
20065;SDS011;10193;48.884;9.182;2023-01-16T08:31:02;0.90;;;0.90;;
20065;SDS011;10193;48.884;9.182;2023-01-16T08:33:33;0.80;;;0.80;;
20065;SDS011;10193;48.884;9.182;2023-01-16T08:36:00;11.03;;;7.70;;
20065;SDS011;10193;48.884;9.182;2023-01-16T08:38:28;6.97;;;4.70;;
20065;SDS011;10193;48.884;9.182;2023-01-16T08:40:54;3.63;;;3.20;;
20065;SDS011;10193;48.884;9.182;2023-01-16T08:43:21;3.37;;;2.70;;
20065;SDS011;10193;48.884;9.182;2023-01-16T08:46:07;2.53;;;2.00;;
20065;SDS011;10193;48.884;9.182;2023-01-16T08:49:01;2.17;;;1.70;;
20065;SDS011;10193;48.884;9.182;2023-01-16T08:51:46;1.80;;;1.10;;
20065;SDS011;10193;48.884;9.182;2023-01-16T08:54:13;1.33;;;1.20;;
20065;SDS011;10193;48.884;9.182;2023-01-16T08:56:40;0.83;;;0.83;;
20065;SDS011;10193;48.884;9.182;2023-01-16T08:59:07;1.57;;;0.80;;
20065;SDS011;10193;48.884;9.182;2023-01-16T09:01:34;3.37;;;1.10;;
20065;SDS011;10193;48.884;9.182;2023-01-16T09:04:02;0.80;;;0.80;;
20065;SDS011;10193;48.884;9.182;2023-01-16T09:06:29;2.43;;;1.30;;
20065;SDS011;10193;48.884;9.182;2023-01-16T09:08:56;1.10;;;1.07;;
20065;SDS011;10193;48.884;9.182;2023-01-16T09:11:22;0.97;;;0.80;;
20065;SDS011;10193;48.884;9.182;2023-01-16T09:14:07;1.30;;;0.93;;
20065;SDS011;10193;48.884;9.182;2023-01-16T09:16:33;1.60;;;0.90;;
20065;SDS011;10193;48.884;9.182;2023-01-16T09:19:00;1.10;;;0.70;;
20065;SDS011;10193;48.884;9.182;2023-01-16T09:21:28;2.27;;;1.10;;
20065;SDS011;10193;48.884;9.182;2023-01-16T09:23:54;1.20;;;1.00;;
20065;SDS011;10193;48.884;9.182;2023-01-16T09:26:21;1.07;;;0.90;;
20065;SDS011;10193;48.884;9.182;2023-01-16T09:28:48;2.27;;;1.13;;
20065;SDS011;10193;48.884;9.182;2023-01-16T09:31:15;0.73;;;0.67;;
20065;SDS011;10193;48.884;9.182;2023-01-16T09:33:43;1.07;;;0.77;;
20065;SDS011;10193;48.884;9.182;2023-01-16T09:36:12;0.97;;;0.90;;
20065;SDS011;10193;48.884;9.182;2023-01-16T09:38:40;0.57;;;0.50;;
20065;SDS011;10193;48.884;9.182;2023-01-16T09:41:08;1.03;;;0.80;;
20065;SDS011;10193;48.884;9.182;2023-01-16T09:44:01;2.00;;;0.67;;
20065;SDS011;10193;48.884;9.182;2023-01-16T09:46:28;0.80;;;0.53;;
20065;SDS011;10193;48.884;9.182;2023-01-16T09:48:58;1.45;;;0.82;;
20065;SDS011;10193;48.884;9.182;2023-01-16T09:51:31;0.65;;;0.50;;
20065;SDS011;10193;48.884;9.182;2023-01-16T09:54:02;0.70;;;0.47;;
20065;SDS011;10193;48.884;9.182;2023-01-16T09:56:50;1.07;;;0.63;;
20065;SDS011;10193;48.884;9.182;2023-01-16T09:59:37;0.67;;;0.47;;
20065;SDS011;10193;48.884;9.182;2023-01-16T10:02:13;0.67;;;0.53;;
20065;SDS011;10193;48.884;9.182;2023-01-16T10:04:45;1.23;;;0.60;;
20065;SDS011;10193;48.884;9.182;2023-01-16T10:07:23;0.50;;;0.50;;
20065;SDS011;10193;48.884;9.182;2023-01-16T10:10:10;0.52;;;0.52;;
20065;SDS011;10193;48.884;9.182;2023-01-16T10:12:46;0.90;;;0.80;;
20065;SDS011;10193;48.884;9.182;2023-01-16T10:15:21;2.33;;;0.80;;
20065;SDS011;10193;48.884;9.182;2023-01-16T10:17:58;0.50;;;0.50;;
20065;SDS011;10193;48.884;9.182;2023-01-16T10:20:33;1.17;;;0.80;;
20065;SDS011;10193;48.884;9.182;2023-01-16T10:23:13;0.83;;;0.70;;
20065;SDS011;10193;48.884;9.182;2023-01-16T10:25:56;0.90;;;0.67;;
20065;SDS011;10193;48.884;9.182;2023-01-16T10:28:32;0.60;;;0.60;;
20065;SDS011;10193;48.884;9.182;2023-01-16T10:31:13;0.93;;;0.70;;
20065;SDS011;10193;48.884;9.182;2023-01-16T10:33:46;0.50;;;0.50;;
20065;SDS011;10193;48.884;9.182;2023-01-16T10:36:16;0.40;;;0.40;;
20065;SDS011;10193;48.884;9.182;2023-01-16T10:38:44;1.23;;;0.50;;
20065;SDS011;10193;48.884;9.182;2023-01-16T10:41:18;1.50;;;0.73;;
20065;SDS011;10193;48.884;9.182;2023-01-16T10:44:01;0.50;;;0.50;;
20065;SDS011;10193;48.884;9.182;2023-01-16T10:46:53;0.68;;;0.50;;
20065;SDS011;10193;48.884;9.182;2023-01-16T10:49:38;1.80;;;0.70;;
20065;SDS011;10193;48.884;9.182;2023-01-16T10:52:04;0.80;;;0.50;;
20065;SDS011;10193;48.884;9.182;2023-01-16T10:54:31;0.47;;;0.47;;
20065;SDS011;10193;48.884;9.182;2023-01-16T10:57:00;1.35;;;0.60;;
20065;SDS011;10193;48.884;9.182;2023-01-16T10:59:28;1.50;;;0.67;;
20065;SDS011;10193;48.884;9.182;2023-01-16T11:01:58;0.60;;;0.40;;
20065;SDS011;10193;48.884;9.182;2023-01-16T11:04:35;0.77;;;0.40;;
20065;SDS011;10193;48.884;9.182;2023-01-16T11:07:12;0.80;;;0.50;;
20065;SDS011;10193;48.884;9.182;2023-01-16T11:09:40;0.30;;;0.30;;
20065;SDS011;10193;48.884;9.182;2023-01-16T11:12:10;0.30;;;0.30;;
20065;SDS011;10193;48.884;9.182;2023-01-16T11:15:00;1.50;;;0.40;;
20065;SDS011;10193;48.884;9.182;2023-01-16T11:17:51;0.50;;;0.50;;
20065;SDS011;10193;48.884;9.182;2023-01-16T11:20:36;0.30;;;0.30;;
20065;SDS011;10193;48.884;9.182;2023-01-16T11:23:04;0.47;;;0.30;;
20065;SDS011;10193;48.884;9.182;2023-01-16T11:25:38;0.68;;;0.43;;
20065;SDS011;10193;48.884;9.182;2023-01-16T11:28:07;0.70;;;0.40;;
20065;SDS011;10193;48.884;9.182;2023-01-16T11:30:42;0.30;;;0.30;;
20065;SDS011;10193;48.884;9.182;2023-01-16T11:33:12;0.40;;;0.40;;
20065;SDS011;10193;48.884;9.182;2023-01-16T11:35:42;0.30;;;0.30;;
20065;SDS011;10193;48.884;9.182;2023-01-16T11:38:13;0.55;;;0.30;;
20065;SDS011;10193;48.884;9.182;2023-01-16T11:40:43;1.23;;;0.50;;
20065;SDS011;10193;48.884;9.182;2023-01-16T11:43:14;0.30;;;0.30;;
20065;SDS011;10193;48.884;9.182;2023-01-16T11:46:07;0.50;;;0.50;;
20065;SDS011;10193;48.884;9.182;2023-01-16T11:48:49;0.80;;;0.50;;
20065;SDS011;10193;48.884;9.182;2023-01-16T11:51:20;0.43;;;0.43;;
20065;SDS011;10193;48.884;9.182;2023-01-16T11:53:52;0.52;;;0.40;;
20065;SDS011;10193;48.884;9.182;2023-01-16T11:56:24;0.50;;;0.50;;
20065;SDS011;10193;48.884;9.182;2023-01-16T11:59:04;0.47;;;0.40;;
20065;SDS011;10193;48.884;9.182;2023-01-16T12:01:43;1.23;;;0.40;;
20065;SDS011;10193;48.884;9.182;2023-01-16T12:04:38;0.55;;;0.30;;
20065;SDS011;10193;48.884;9.182;2023-01-16T12:07:30;0.50;;;0.50;;
20065;SDS011;10193;48.884;9.182;2023-01-16T12:10:05;0.32;;;0.20;;
20065;SDS011;10193;48.884;9.182;2023-01-16T12:12:43;0.45;;;0.45;;
20065;SDS011;10193;48.884;9.182;2023-01-16T12:15:39;0.40;;;0.40;;
20065;SDS011;10193;48.884;9.182;2023-01-16T12:18:17;0.30;;;0.30;;
20065;SDS011;10193;48.884;9.182;2023-01-16T12:20:52;0.30;;;0.30;;
20065;SDS011;10193;48.884;9.182;2023-01-16T12:23:28;0.35;;;0.35;;
20065;SDS011;10193;48.884;9.182;2023-01-16T12:26:19;0.60;;;0.40;;
20065;SDS011;10193;48.884;9.182;2023-01-16T12:28:52;0.30;;;0.30;;
20065;SDS011;10193;48.884;9.182;2023-01-16T12:31:44;0.38;;;0.38;;
20065;SDS011;10193;48.884;9.182;2023-01-16T12:34:30;0.60;;;0.40;;
20065;SDS011;10193;48.884;9.182;2023-01-16T12:37:11;0.38;;;0.35;;
20065;SDS011;10193;48.884;9.182;2023-01-16T12:39:51;0.38;;;0.38;;
20065;SDS011;10193;48.884;9.182;2023-01-16T12:42:28;0.45;;;0.40;;
20065;SDS011;10193;48.884;9.182;2023-01-16T12:45:23;0.45;;;0.38;;
20065;SDS011;10193;48.884;9.182;2023-01-16T12:48:01;0.40;;;0.40;;
20065;SDS011;10193;48.884;9.182;2023-01-16T12:50:45;0.70;;;0.50;;
20065;SDS011;10193;48.884;9.182;2023-01-16T12:53:28;0.50;;;0.50;;
20065;SDS011;10193;48.884;9.182;2023-01-16T12:56:24;0.50;;;0.50;;
20065;SDS011;10193;48.884;9.182;2023-01-16T12:59:10;0.68;;;0.40;;
20065;SDS011;10193;48.884;9.182;2023-01-16T13:01:41;0.40;;;0.40;;
20065;SDS011;10193;48.884;9.182;2023-01-16T13:04:14;0.47;;;0.47;;
20065;SDS011;10193;48.884;9.182;2023-01-16T13:06:48;1.15;;;0.40;;
20065;SDS011;10193;48.884;9.182;2023-01-16T13:09:18;0.40;;;0.40;;
20065;SDS011;10193;48.884;9.182;2023-01-16T13:11:57;1.00;;;0.60;;
20065;SDS011;10193;48.884;9.182;2023-01-16T13:14:47;0.73;;;0.73;;
20065;SDS011;10193;48.884;9.182;2023-01-16T13:17:21;0.70;;;0.70;;
20065;SDS011;10193;48.884;9.182;2023-01-16T13:19:53;0.55;;;0.40;;
20065;SDS011;10193;48.884;9.182;2023-01-16T13:22:21;0.65;;;0.65;;
20065;SDS011;10193;48.884;9.182;2023-01-16T13:24:53;0.50;;;0.50;;
20065;SDS011;10193;48.884;9.182;2023-01-16T13:27:25;0.60;;;0.60;;
20065;SDS011;10193;48.884;9.182;2023-01-16T13:30:05;1.08;;;0.40;;
20065;SDS011;10193;48.884;9.182;2023-01-16T13:32:38;0.40;;;0.40;;
20065;SDS011;10193;48.884;9.182;2023-01-16T13:35:12;0.60;;;0.60;;
20065;SDS011;10193;48.884;9.182;2023-01-16T13:37:49;0.68;;;0.40;;
20065;SDS011;10193;48.884;9.182;2023-01-16T13:43:40;0.40;;;0.40;;
20065;SDS011;10193;48.884;9.182;2023-01-16T13:46:29;0.40;;;0.40;;
20065;SDS011;10193;48.884;9.182;2023-01-16T13:48:56;0.43;;;0.40;;
20065;SDS011;10193;48.884;9.182;2023-01-16T13:51:27;0.30;;;0.30;;
20065;SDS011;10193;48.884;9.182;2023-01-16T13:53:55;0.38;;;0.38;;
20065;SDS011;10193;48.884;9.182;2023-01-16T13:56:24;0.47;;;0.30;;
20065;SDS011;10193;48.884;9.182;2023-01-16T13:58:54;0.40;;;0.40;;
20065;SDS011;10193;48.884;9.182;2023-01-16T14:01:28;0.80;;;0.50;;
20065;SDS011;10193;48.884;9.182;2023-01-16T14:04:26;0.30;;;0.30;;
20065;SDS011;10193;48.884;9.182;2023-01-16T14:06:58;0.45;;;0.40;;
20065;SDS011;10193;48.884;9.182;2023-01-16T14:13:01;0.20;;;0.20;;
20065;SDS011;10193;48.884;9.182;2023-01-16T14:15:48;1.55;;;0.30;;
20065;SDS011;10193;48.884;9.182;2023-01-16T14:18:41;0.38;;;0.20;;
20065;SDS011;10193;48.884;9.182;2023-01-16T14:21:10;0.10;;;0.10;;
20065;SDS011;10193;48.884;9.182;2023-01-16T14:23:46;0.68;;;0.35;;
20065;SDS011;10193;48.884;9.182;2023-01-16T14:26:32;0.30;;;0.30;;
20065;SDS011;10193;48.884;9.182;2023-01-16T14:29:04;0.60;;;0.60;;
20065;SDS011;10193;48.884;9.182;2023-01-16T14:31:41;0.20;;;0.20;;
20065;SDS011;10193;48.884;9.182;2023-01-16T14:34:14;0.17;;;0.17;;
20065;SDS011;10193;48.884;9.182;2023-01-16T14:36:43;0.30;;;0.20;;
20065;SDS011;10193;48.884;9.182;2023-01-16T14:39:26;0.38;;;0.38;;
20065;SDS011;10193;48.884;9.182;2023-01-16T14:41:56;0.50;;;0.38;;
20065;SDS011;10193;48.884;9.182;2023-01-16T14:44:58;0.30;;;0.30;;
20065;SDS011;10193;48.884;9.182;2023-01-16T14:48:08;0.20;;;0.20;;
20065;SDS011;10193;48.884;9.182;2023-01-16T14:50:55;0.22;;;0.13;;
20065;SDS011;10193;48.884;9.182;2023-01-16T14:53:44;0.40;;;0.30;;
20065;SDS011;10193;48.884;9.182;2023-01-16T14:56:31;0.30;;;0.30;;
20065;SDS011;10193;48.884;9.182;2023-01-16T14:59:03;0.65;;;0.30;;
20065;SDS011;10193;48.884;9.182;2023-01-16T15:01:32;0.47;;;0.40;;
20065;SDS011;10193;48.884;9.182;2023-01-16T15:04:20;0.40;;;0.30;;
20065;SDS011;10193;48.884;9.182;2023-01-16T15:06:50;0.28;;;0.28;;
20065;SDS011;10193;48.884;9.182;2023-01-16T15:09:22;0.35;;;0.35;;
20065;SDS011;10193;48.884;9.182;2023-01-16T15:11:55;0.20;;;0.20;;
20065;SDS011;10193;48.884;9.182;2023-01-16T15:14:24;0.77;;;0.50;;
20065;SDS011;10193;48.884;9.182;2023-01-16T15:16:52;0.57;;;0.30;;
20065;SDS011;10193;48.884;9.182;2023-01-16T15:23:18;1.05;;;0.30;;
20065;SDS011;10193;48.884;9.182;2023-01-16T15:26:05;0.55;;;0.40;;
20065;SDS011;10193;48.884;9.182;2023-01-16T15:28:53;0.40;;;0.40;;
20065;SDS011;10193;48.884;9.182;2023-01-16T15:31:28;0.55;;;0.47;;
20065;SDS011;10193;48.884;9.182;2023-01-16T15:33:57;0.98;;;0.38;;
20065;SDS011;10193;48.884;9.182;2023-01-16T15:36:30;0.22;;;0.22;;
20065;SDS011;10193;48.884;9.182;2023-01-16T15:38:59;0.20;;;0.20;;